createdAt,value
2018-12-18T00:00:40.468Z,85.46
2018-12-18T00:05:44.968Z,85.79
2018-12-18T00:10:54.808Z,85.37
2018-12-18T00:15:59.299Z,85.68
2018-12-18T00:21:04.328Z,85.44
2018-12-18T00:26:09.273Z,85.40
2018-12-18T00:31:14.586Z,85.51
2018-12-18T00:36:20.391Z,85.77
2018-12-18T00:46:48.406Z,85.54
2018-12-18T00:51:54.927Z,85.20
2018-12-18T00:56:59.785Z,84.92
2018-12-18T01:02:04.842Z,84.89
2018-12-18T01:12:30.627Z,85.56
2018-12-18T01:17:36.349Z,84.89
2018-12-18T01:28:02.195Z,84.91
2018-12-18T01:33:07.255Z,84.89
2018-12-18T01:38:13.148Z,85.30
2018-12-18T01:43:18.352Z,85.13
2018-12-18T01:48:24.967Z,85.38
2018-12-18T01:53:30.944Z,85.08
2018-12-18T01:58:36.086Z,84.62
2018-12-18T02:03:44.407Z,84.65
2018-12-18T02:08:51.077Z,84.60
2018-12-18T02:13:58.408Z,84.40
2018-12-18T02:19:03.595Z,84.38
2018-12-18T02:24:09.141Z,83.91
2018-12-18T02:29:15.094Z,84.42
2018-12-18T02:34:21.127Z,84.26
2018-12-18T02:39:27.659Z,83.87
2018-12-18T02:44:34.029Z,83.72
2018-12-18T02:49:39.998Z,83.57
2018-12-18T02:54:45.306Z,83.54
2018-12-18T02:59:51.409Z,83.20
2018-12-18T03:04:57.034Z,83.25
2018-12-18T03:15:22.163Z,82.96
2018-12-18T03:20:29.176Z,82.84
2018-12-18T03:25:38.467Z,82.32
2018-12-18T03:30:43.080Z,82.40
2018-12-18T03:35:48.152Z,82.97
2018-12-18T03:40:55.791Z,82.51
2018-12-18T03:51:37.932Z,82.96
2018-12-18T03:56:43.104Z,83.21
2018-12-18T04:01:48.595Z,83.43
2018-12-18T04:06:54.145Z,83.98
2018-12-18T04:12:04.598Z,83.16
2018-12-18T04:17:11.119Z,83.37
2018-12-18T04:22:16.534Z,83.42
2018-12-18T04:27:21.706Z,82.64
2018-12-18T04:32:26.567Z,82.40
2018-12-18T04:37:39.363Z,82.34
2018-12-18T04:42:44.743Z,81.89
2018-12-18T04:47:49.997Z,82.35
2018-12-18T04:52:55.668Z,82.21
2018-12-18T04:58:02.811Z,81.85
2018-12-18T05:03:07.762Z,82.32
2018-12-18T05:08:12.331Z,82.45
2018-12-18T05:13:18.142Z,81.87
2018-12-18T05:18:30.175Z,82.16
2018-12-18T05:23:35.373Z,81.87
2018-12-18T05:28:41.335Z,82.42
2018-12-18T05:33:48.065Z,82.21
2018-12-18T05:38:53.479Z,82.62
2018-12-18T05:49:20.020Z,82.35
2018-12-18T05:54:27.022Z,82.05
2018-12-18T05:59:32.027Z,82.40
2018-12-18T06:04:38.311Z,81.75
2018-12-18T06:09:44.025Z,81.96
2018-12-18T06:14:50.283Z,81.74
2018-12-18T06:19:55.040Z,81.04
2018-12-18T06:25:00.203Z,81.58
2018-12-18T06:30:05.594Z,81.67
2018-12-18T06:35:10.723Z,81.04
2018-12-18T06:41:09.422Z,80.71
2018-12-18T06:46:16.338Z,80.53
2018-12-18T06:51:22.894Z,80.66
2018-12-18T06:56:27.445Z,80.67
2018-12-18T07:01:34.296Z,80.94
2018-12-18T07:06:40.231Z,80.88
2018-12-18T07:11:45.444Z,80.12
2018-12-18T07:16:50.989Z,79.91
2018-12-18T07:27:17.161Z,79.05
2018-12-18T07:32:21.913Z,78.78
2018-12-18T07:37:26.940Z,78.71
2018-12-18T07:42:32.511Z,78.85
2018-12-18T07:47:37.553Z,77.81
2018-12-18T07:52:42.708Z,77.44
2018-12-18T07:57:50.443Z,77.43
2018-12-18T08:02:55.132Z,77.35
2018-12-18T08:08:01.988Z,76.95
2018-12-18T08:13:08.890Z,76.57
2018-12-18T08:18:14.802Z,76.19
2018-12-18T08:23:19.642Z,76.44
2018-12-18T08:28:25.112Z,76.13
2018-12-18T08:33:30.384Z,76.28
2018-12-18T08:38:35.934Z,75.93
2018-12-18T08:43:40.869Z,75.67
2018-12-18T08:48:46.889Z,75.68
2018-12-18T08:53:52.412Z,75.64
2018-12-18T08:58:57.927Z,75.08
2018-12-18T09:04:07.424Z,75.25
2018-12-18T09:14:34.439Z,74.65
2018-12-18T09:19:39.547Z,74.04
2018-12-18T09:24:44.796Z,73.63
2018-12-18T09:29:50.479Z,73.30
2018-12-18T09:34:55.288Z,73.04
2018-12-18T09:40:02.300Z,72.98
2018-12-18T09:45:08.614Z,73.13
2018-12-18T09:50:15.574Z,72.71
2018-12-18T09:55:20.905Z,72.66
2018-12-18T10:00:27.255Z,72.35
2018-12-18T10:05:33.865Z,71.30
2018-12-18T10:10:39.293Z,71.24
2018-12-18T10:15:44.515Z,71.52
2018-12-18T10:20:49.713Z,71.84
2018-12-18T10:25:54.426Z,70.91
2018-12-18T10:30:59.346Z,70.15
2018-12-18T10:36:04.017Z,69.92
2018-12-18T10:41:08.932Z,69.64
2018-12-18T10:46:14.322Z,69.58
2018-12-18T10:56:38.795Z,69.42
2018-12-18T11:01:48.218Z,69.76
2018-12-18T11:06:54.320Z,69.35
2018-12-18T11:17:27.912Z,68.69
2018-12-18T11:22:33.426Z,68.50
2018-12-18T11:33:37.077Z,69.34
2018-12-18T11:44:42.288Z,69.65
2018-12-18T11:49:46.815Z,69.01
2018-12-18T11:54:51.498Z,69.29
2018-12-18T12:29:28.139Z,68.22
2018-12-18T12:34:34.455Z,68.10
2018-12-18T14:39:09.855Z,61.43
2018-12-18T14:44:15.632Z,74.48
2018-12-18T14:49:20.710Z,73.58
2018-12-18T14:54:47.323Z,73.25
2018-12-18T14:59:52.300Z,72.64
2018-12-18T15:04:57.010Z,73.49
2018-12-18T15:10:02.197Z,73.02
2018-12-18T15:15:07.679Z,73.25
2018-12-18T15:20:11.803Z,73.46
2018-12-18T15:25:16.997Z,73.42
2018-12-18T15:30:25.913Z,73.73
2018-12-18T15:35:30.066Z,73.71
2018-12-18T15:40:34.642Z,73.42
2018-12-18T15:45:40.045Z,73.22
2018-12-18T15:50:44.957Z,73.15
2018-12-18T15:55:49.510Z,73.65
2018-12-18T16:00:55.400Z,73.62
2018-12-18T16:06:00.282Z,73.57
2018-12-18T16:11:04.539Z,73.89
2018-12-18T16:16:10.233Z,74.06
2018-12-18T16:21:15.660Z,74.44
2018-12-18T16:26:20.051Z,74.40
2018-12-18T16:31:25.215Z,73.98
2018-12-18T16:36:29.874Z,74.05
2018-12-18T16:41:34.628Z,74.19
2018-12-18T16:46:39.014Z,74.38
2018-12-18T16:51:44.353Z,74.62
2018-12-18T16:56:48.619Z,74.53
2018-12-18T17:01:53.249Z,74.32
2018-12-18T17:06:58.515Z,74.39
2018-12-18T17:12:03.052Z,74.02
2018-12-18T17:17:07.943Z,74.42
2018-12-18T17:22:13.511Z,75.14
2018-12-18T17:27:18.098Z,75.01
2018-12-18T17:32:25.349Z,74.80
2018-12-18T17:42:55.178Z,74.79
2018-12-18T17:47:59.845Z,74.70
2018-12-18T17:53:05.327Z,74.39
2018-12-18T17:58:11.031Z,74.77
2018-12-18T18:08:39.015Z,73.87
2018-12-18T18:13:43.946Z,73.72
2018-12-18T18:18:50.428Z,74.14
2018-12-18T18:23:55.573Z,73.76
2018-12-18T18:29:01.279Z,73.73
2018-12-18T18:34:05.666Z,73.83
2018-12-18T18:39:10.374Z,73.74
2018-12-18T18:44:14.792Z,73.52
2018-12-18T18:49:20.284Z,73.07
2018-12-18T18:54:24.975Z,73.77
2018-12-18T18:59:30.127Z,73.59
2018-12-18T19:04:35.576Z,73.94
2018-12-18T19:09:40.825Z,73.79
2018-12-18T19:14:45.447Z,73.41
2018-12-18T19:19:51.746Z,73.75
2018-12-18T19:24:57.531Z,73.53
2018-12-18T19:30:02.333Z,73.70
2018-12-18T19:35:06.729Z,73.64
2018-12-18T19:40:11.693Z,73.57
2018-12-18T19:45:16.520Z,73.87
2018-12-18T19:50:21.203Z,73.47
2018-12-18T19:55:26.228Z,73.56
2018-12-18T20:00:31.417Z,73.51
2018-12-18T20:05:38.381Z,73.89
2018-12-18T20:10:43.267Z,74.09
2018-12-18T20:21:17.146Z,73.41
2018-12-18T20:26:22.249Z,73.90
2018-12-18T20:31:27.213Z,73.49
2018-12-18T20:36:32.019Z,73.28
2018-12-18T20:41:36.515Z,73.43
2018-12-18T20:46:41.399Z,73.81
2018-12-18T20:51:45.757Z,73.52
2018-12-18T20:56:50.551Z,73.27
2018-12-18T21:01:57.535Z,73.07
2018-12-18T21:07:02.867Z,73.15
2018-12-18T21:12:08.256Z,73.41
2018-12-18T21:17:14.415Z,73.31
2018-12-18T21:22:19.230Z,73.15
2018-12-18T21:27:25.603Z,72.61
2018-12-18T21:32:30.792Z,73.11
2018-12-18T21:37:36.214Z,72.39
2018-12-18T21:48:03.874Z,71.91
2018-12-18T21:53:09.894Z,72.11
2018-12-18T21:58:14.705Z,72.48
2018-12-18T22:03:19.293Z,71.94
2018-12-18T22:08:25.222Z,72.01
2018-12-18T22:13:30.873Z,71.72
2018-12-18T22:18:37.213Z,71.77
2018-12-18T22:23:42.626Z,71.66
2018-12-18T22:28:47.453Z,71.79
2018-12-18T22:33:52.649Z,71.27
2018-12-18T22:38:57.881Z,71.27
2018-12-18T22:44:03.185Z,71.35
2018-12-18T22:54:35.754Z,71.81
2018-12-18T22:59:40.408Z,71.72
2018-12-18T23:04:46.650Z,71.84
2018-12-18T23:09:51.529Z,71.25
2018-12-18T23:14:59.102Z,71.29
2018-12-18T23:20:04.524Z,71.77
2018-12-18T23:25:09.904Z,72.06
2018-12-18T23:30:15.715Z,71.78
2018-12-18T23:35:20.540Z,72.19
2018-12-18T23:40:25.375Z,72.70
2018-12-18T23:45:30.724Z,72.13
2018-12-18T23:50:35.832Z,71.44
